Time;durP1;ratioP1;P1;durP2;ratioP2;P2;SDS_P1;SDS_P2;PMS_P1;PMS_P2;Temp;Humidity;BMP_temperature;BMP_pressure;BME280_temperature;BME280_humidity;BME280_pressure;Samples;Min_cycle;Max_cycle;Signal;HPM_P1;HPM_P2
2022/08/11 00:01:06;;;;;;;;;;;19.70;99.90;;;;;;5070812;28;19912;-74
2022/08/11 00:03:33;;;;;;;;;;;19.60;99.90;;;;;;5069901;28;19944;-73
2022/08/11 00:05:58;;;;;;;;;;;19.50;99.90;;;;;;5068003;28;19931;-74
2022/08/11 00:08:26;;;;;;;;;;;19.50;99.90;;;;;;5068784;28;19920;-74
2022/08/11 00:10:57;;;;;;;;;;;19.50;99.90;;;;;;5073396;28;19920;-74
2022/08/11 00:13:31;;;;;;;;;;;19.50;99.90;;;;;;5071985;28;19920;-73
2022/08/11 00:15:56;;;;;;;;;;;19.50;99.90;;;;;;5072224;28;19928;-74
2022/08/11 00:18:22;;;;;;;;;;;19.40;99.90;;;;;;5072612;28;19932;-73
2022/08/11 00:20:49;;;;;;;;;;;19.50;99.90;;;;;;5072663;28;19959;-73
2022/08/11 00:23:15;;;;;;;;;;;19.50;99.90;;;;;;5065913;28;19919;-73
2022/08/11 00:25:42;;;;;;;;;;;19.50;99.90;;;;;;5072036;28;20204;-72
2022/08/11 00:28:23;;;;;;;;;;;19.40;99.90;;;;;;5072910;28;19919;-73
2022/08/11 00:30:50;;;;;;;;;;;19.40;99.90;;;;;;5071040;28;19921;-73
2022/08/11 00:33:17;;;;;;;;;;;19.30;99.90;;;;;;5070950;28;19938;-72
2022/08/11 00:35:59;;;;;;;;;;;19.30;99.90;;;;;;5071996;28;20211;-72
2022/08/11 00:38:27;;;;;;;;;;;19.20;99.90;;;;;;5069612;28;19952;-77
2022/08/11 00:41:03;;;;;;;;;;;19.20;99.90;;;;;;5066227;28;20357;-73
2022/08/11 00:43:43;;;;;;;;;;;19.30;99.90;;;;;;5070657;28;19919;-77
2022/08/11 00:46:20;;;;;;;;;;;19.20;99.90;;;;;;5054744;28;19916;-73
2022/08/11 00:48:52;;;;;;;;;;;19.20;99.90;;;;;;5073184;28;19923;-73
2022/08/11 00:51:18;;;;;;;;;;;19.20;99.90;;;;;;5071796;28;20168;-73
2022/08/11 00:53:55;;;;;;;;;;;19.10;99.90;;;;;;5070044;28;19928;-73
2022/08/11 00:56:30;;;;;;;;;;;19.10;99.90;;;;;;5060519;28;20000;-73
2022/08/11 00:59:14;;;;;;;;;;;19.00;99.90;;;;;;5072225;28;19920;-73
2022/08/11 01:01:55;;;;;;;;;;;19.00;99.90;;;;;;5093062;28;19916;-72
2022/08/11 01:04:30;;;;;;;;;;;18.90;99.90;;;;;;5071866;28;19965;-73
2022/08/11 01:07:13;;;;;;;;;;;18.90;99.90;;;;;;5063067;28;20303;-73
2022/08/11 01:10:02;;;;;;;;;;;18.80;99.90;;;;;;5064438;28;19963;-72
2022/08/11 01:12:48;;;;;;;;;;;18.80;99.90;;;;;;5063573;28;19920;-73
2022/08/11 01:15:23;;;;;;;;;;;18.80;99.90;;;;;;5070717;28;19920;-73
2022/08/11 01:17:54;;;;;;;;;;;18.80;99.90;;;;;;5072002;28;20004;-73
2022/08/11 01:20:50;;;;;;;;;;;18.70;99.90;;;;;;5075037;28;19956;-72
2022/08/11 01:23:25;;;;;;;;;;;18.70;99.90;;;;;;5067641;28;19916;-78
2022/08/11 01:25:53;;;;;;;;;;;18.70;99.90;;;;;;5069789;28;19917;-73
2022/08/11 01:28:37;;;;;;;;;;;18.60;99.90;;;;;;5071515;28;19928;-73
2022/08/11 01:31:18;;;;;;;;;;;18.70;99.90;;;;;;5074090;28;20334;-73
2022/08/11 01:34:03;;;;;;;;;;;18.60;99.90;;;;;;5076910;28;19920;-72
2022/08/11 01:36:34;;;;;;;;;;;18.60;99.90;;;;;;5063577;28;19920;-78
2022/08/11 01:39:16;;;;;;;;;;;18.50;99.90;;;;;;5076136;28;19928;-73
2022/08/11 01:44:44;;;;;;;;;;;18.50;99.90;;;;;;5075645;28;19966;-73
2022/08/11 01:47:49;;;;;;;;;;;18.50;99.90;;;;;;5074548;28;20215;-72
2022/08/11 01:50:07;;;;;;;;;;;18.40;99.90;;;;;;5067666;28;20219;-73
2022/08/11 01:52:41;;;;;;;;;;;18.40;99.90;;;;;;5066534;28;19916;-73
2022/08/11 01:55:16;;;;;;;;;;;18.40;99.90;;;;;;5070469;28;20374;-73
2022/08/11 01:57:49;;;;;;;;;;;18.40;99.90;;;;;;5074198;28;19963;-73
2022/08/11 02:00:17;;;;;;;;;;;18.30;99.90;;;;;;5073461;28;19931;-73
2022/08/11 02:03:05;;;;;;;;;;;18.40;99.90;;;;;;5077590;28;19924;-73
2022/08/11 02:05:31;;;;;;;;;;;18.40;99.90;;;;;;5071689;28;19931;-75
2022/08/11 02:08:08;;;;;;;;;;;18.30;99.90;;;;;;5075116;28;19912;-73
2022/08/11 02:13:35;;;;;;;;;;;18.30;99.90;;;;;;5072147;28;20009;-73
2022/08/11 02:16:19;;;;;;;;;;;18.30;99.90;;;;;;5076053;28;19932;-73
2022/08/11 02:24:33;;;;;;;;;;;18.20;99.90;;;;;;5071389;28;20212;-73
2022/08/11 02:27:15;;;;;;;;;;;18.20;99.90;;;;;;5072411;28;19912;-73
2022/08/11 02:30:03;;;;;;;;;;;18.10;99.90;;;;;;5074290;28;20223;-73
2022/08/11 02:35:35;;;;;;;;;;;18.10;99.90;;;;;;5067596;28;19919;-73
2022/08/11 02:38:16;;;;;;;;;;;18.10;99.90;;;;;;5065863;28;19924;-73
2022/08/11 02:42:21;;;;;;;;;;;18.10;99.90;;;;;;5069739;28;19920;-73
2022/08/11 02:44:12;;;;;;;;;;;18.10;99.90;;;;;;5063140;28;19957;-73
2022/08/11 02:46:48;;;;;;;;;;;18.00;99.90;;;;;;5072867;28;19924;-73
2022/08/11 02:49:55;;;;;;;;;;;18.00;99.90;;;;;;5071736;28;20307;-73
2022/08/11 02:52:35;;;;;;;;;;;17.90;99.90;;;;;;5063557;28;19942;-73
2022/08/11 02:55:07;;;;;;;;;;;17.90;99.90;;;;;;5079419;28;20373;-73
2022/08/11 02:57:36;;;;;;;;;;;17.90;99.90;;;;;;5069621;28;19920;-73
2022/08/11 03:00:06;;;;;;;;;;;17.80;99.90;;;;;;5074458;28;19928;-73
2022/08/11 03:02:50;;;;;;;;;;;17.80;99.90;;;;;;5072812;28;20007;-73
2022/08/11 03:05:22;;;;;;;;;;;17.90;99.90;;;;;;5065817;28;19917;-75
2022/08/11 03:08:06;;;;;;;;;;;17.90;99.90;;;;;;5070029;28;20266;-73
2022/08/11 03:16:43;;;;;;;;;;;17.90;99.90;;;;;;5066211;28;19920;-74
2022/08/11 03:16:44;;;;;;;;;;;18.00;99.90;;;;;;5067675;28;19963;-73
2022/08/11 03:19:12;;;;;;;;;;;17.90;99.90;;;;;;5072464;28;19916;-73
2022/08/11 03:21:47;;;;;;;;;;;18.00;99.90;;;;;;5070489;28;19923;-73
2022/08/11 03:24:17;;;;;;;;;;;17.90;99.90;;;;;;5067462;28;20011;-73
2022/08/11 03:26:55;;;;;;;;;;;17.80;99.90;;;;;;5071777;28;19978;-73
2022/08/11 03:29:43;;;;;;;;;;;17.80;99.90;;;;;;5065171;28;19909;-74
2022/08/11 03:32:23;;;;;;;;;;;17.80;99.90;;;;;;5072211;28;19995;-73
2022/08/11 03:34:49;;;;;;;;;;;17.70;99.90;;;;;;5072999;28;20215;-73
2022/08/11 03:43:48;;;;;;;;;;;17.70;99.90;;;;;;5049775;28;19951;-73
2022/08/11 03:46:16;;;;;;;;;;;17.70;99.90;;;;;;5043325;28;19916;-73
2022/08/11 03:48:59;;;;;;;;;;;17.70;99.90;;;;;;5042070;28;20305;-73
2022/08/11 03:51:38;;;;;;;;;;;17.60;99.90;;;;;;5033120;28;19920;-74
2022/08/11 03:54:07;;;;;;;;;;;17.60;99.90;;;;;;5049471;28;19913;-74
2022/08/11 03:56:38;;;;;;;;;;;17.60;99.90;;;;;;5047367;28;21362;-74
2022/08/11 03:59:10;;;;;;;;;;;17.60;99.90;;;;;;5048983;28;20362;-74
2022/08/11 04:01:54;;;;;;;;;;;17.60;99.90;;;;;;5048607;28;19912;-73
2022/08/11 04:04:38;;;;;;;;;;;17.50;99.90;;;;;;5065307;28;19920;-73
2022/08/11 04:07:22;;;;;;;;;;;17.50;99.90;;;;;;5062957;28;20346;-74
2022/08/11 04:09:59;;;;;;;;;;;17.40;99.90;;;;;;5059956;28;19921;-74
2022/08/11 04:12:37;;;;;;;;;;;17.40;99.90;;;;;;5042939;28;19916;-73
2022/08/11 04:18:34;;;;;;;;;;;17.40;99.90;;;;;;5072098;28;19923;-74
2022/08/11 04:21:05;;;;;;;;;;;17.30;99.90;;;;;;5073301;28;20315;-74
2022/08/11 04:23:40;;;;;;;;;;;17.30;99.90;;;;;;5070474;28;21462;-74
2022/08/11 04:26:24;;;;;;;;;;;17.30;99.90;;;;;;5071987;28;20315;-74
2022/08/11 04:29:08;;;;;;;;;;;17.30;99.90;;;;;;5071463;28;19921;-74
2022/08/11 04:31:37;;;;;;;;;;;17.30;99.90;;;;;;5071922;28;19977;-74
2022/08/11 04:34:21;;;;;;;;;;;17.30;99.90;;;;;;5087021;28;19955;-74
2022/08/11 04:40:10;;;;;;;;;;;17.20;99.90;;;;;;5071281;28;19950;-74
2022/08/11 04:45:43;;;;;;;;;;;17.30;99.90;;;;;;5072382;28;19973;-74
2022/08/11 05:03:12;;;;;;;;;;;17.40;99.90;;;;;;5073676;28;20298;-74
2022/08/11 05:05:37;;;;;;;;;;;17.40;99.90;;;;;;5072549;28;19912;-74
2022/08/11 05:08:21;;;;;;;;;;;17.30;99.90;;;;;;5067975;28;19982;-74
2022/08/11 05:10:53;;;;;;;;;;;17.30;99.90;;;;;;5070498;28;19938;-74
2022/08/11 05:35:49;;;;;;;;;;;17.80;99.90;;;;;;5071825;28;19927;-74
2022/08/11 05:57:55;;;;;;;;;;;18.40;99.90;;;;;;5070022;28;19967;-74
2022/08/11 06:00:23;;;;;;;;;;;18.50;99.90;;;;;;5070822;28;19928;-73
2022/08/11 06:02:57;;;;;;;;;;;18.70;99.90;;;;;;5074104;28;19924;-74
2022/08/11 06:05:24;;;;;;;;;;;18.80;99.90;;;;;;5074546;28;19916;-74
2022/08/11 06:07:52;;;;;;;;;;;18.80;99.90;;;;;;5074440;28;19973;-73
2022/08/11 06:10:25;;;;;;;;;;;18.90;99.90;;;;;;5071988;28;19924;-75
2022/08/11 06:12:54;;;;;;;;;;;19.00;99.90;;;;;;5073396;28;19916;-74
2022/08/11 06:15:20;;;;;;;;;;;19.00;99.90;;;;;;5074582;28;19924;-74
2022/08/11 06:17:47;;;;;;;;;;;19.10;99.90;;;;;;5073670;28;20207;-74
2022/08/11 06:20:14;;;;;;;;;;;19.20;99.90;;;;;;5073277;28;19967;-73
2022/08/11 06:22:41;;;;;;;;;;;19.20;99.90;;;;;;5074860;28;19912;-74
2022/08/11 06:25:08;;;;;;;;;;;19.30;99.90;;;;;;5070845;28;19924;-75
2022/08/11 06:27:35;;;;;;;;;;;19.30;99.90;;;;;;5074453;28;19997;-73
2022/08/11 06:30:12;;;;;;;;;;;19.30;99.90;;;;;;5074354;28;20219;-73
2022/08/11 06:32:38;;;;;;;;;;;19.30;99.90;;;;;;5075651;28;19923;-74
2022/08/11 06:35:29;;;;;;;;;;;19.20;99.90;;;;;;5101985;28;20207;-74
2022/08/11 06:38:05;;;;;;;;;;;19.30;99.90;;;;;;5071723;28;20002;-74
2022/08/11 06:40:36;;;;;;;;;;;19.30;99.90;;;;;;5073529;28;20334;-74
2022/08/11 06:43:18;;;;;;;;;;;19.40;99.90;;;;;;5073712;28;20236;-73
2022/08/11 06:45:56;;;;;;;;;;;19.50;99.90;;;;;;5070382;28;19962;-73
2022/08/11 06:48:23;;;;;;;;;;;19.70;99.90;;;;;;5075422;28;19928;-74
2022/08/11 06:51:13;;;;;;;;;;;19.70;99.90;;;;;;5071763;28;19932;-74
2022/08/11 06:53:42;;;;;;;;;;;19.80;99.90;;;;;;5074342;28;19912;-75
2022/08/11 07:01:47;;;;;;;;;;;20.00;99.90;;;;;;5073720;28;19923;-74
2022/08/11 07:04:20;;;;;;;;;;;20.00;99.90;;;;;;5071039;28;19912;-74
2022/08/11 07:15:43;;;;;;;;;;;20.30;99.90;;;;;;5072692;28;19942;-74
2022/08/11 07:29:42;;;;;;;;;;;20.90;99.90;;;;;;5075428;28;20377;-74
2022/08/11 07:32:17;;;;;;;;;;;21.00;99.90;;;;;;5072992;28;19923;-74
2022/08/11 07:34:46;;;;;;;;;;;21.20;99.90;;;;;;5072034;28;20042;-75
2022/08/11 07:37:16;;;;;;;;;;;21.50;99.90;;;;;;5073609;28;19919;-75
2022/08/11 07:39:43;;;;;;;;;;;21.70;99.90;;;;;;5075465;28;19938;-74
2022/08/11 07:42:10;;;;;;;;;;;21.90;99.90;;;;;;5069940;28;20300;-75
2022/08/11 07:48:10;;;;;;;;;;;22.20;99.90;;;;;;5072122;28;19950;-75
2022/08/11 07:52:51;;;;;;;;;;;23.00;99.90;;;;;;5073879;28;19920;-75
2022/08/11 07:55:19;;;;;;;;;;;23.20;99.90;;;;;;5072589;28;19912;-74
2022/08/11 08:19:49;;;;;;;;;;;24.90;99.90;;;;;;5073099;28;20215;-75
2022/08/11 08:22:16;;;;;;;;;;;25.00;99.90;;;;;;5103644;28;19912;-74
2022/08/11 08:24:42;;;;;;;;;;;25.00;99.90;;;;;;5071096;28;20291;-74
2022/08/11 08:27:11;;;;;;;;;;;25.20;99.90;;;;;;5073941;28;19912;-75
2022/08/11 08:32:21;;;;;;;;;;;25.50;99.90;;;;;;5070995;28;19983;-75
2022/08/11 08:34:50;;;;;;;;;;;25.70;99.90;;;;;;5070952;28;20303;-75
2022/08/11 08:37:20;;;;;;;;;;;25.70;99.90;;;;;;5069232;28;19917;-74
2022/08/11 08:39:47;;;;;;;;;;;25.70;99.90;;;;;;5105703;28;20216;-74
2022/08/11 08:42:16;;;;;;;;;;;25.70;99.90;;;;;;5069757;28;20318;-76
2022/08/11 08:44:43;;;;;;;;;;;26.00;99.90;;;;;;5072602;28;19960;-75
2022/08/11 08:47:13;;;;;;;;;;;26.20;99.90;;;;;;5068133;28;20213;-76
2022/08/11 08:49:43;;;;;;;;;;;26.30;99.90;;;;;;5068936;28;19916;-75
2022/08/11 08:52:11;;;;;;;;;;;26.30;99.90;;;;;;5068713;28;19913;-76
2022/08/11 08:54:38;;;;;;;;;;;26.40;99.90;;;;;;5073322;28;19919;-75
2022/08/11 08:57:05;;;;;;;;;;;26.50;99.10;;;;;;5073199;28;19952;-75
2022/08/11 08:59:32;;;;;;;;;;;26.60;99.50;;;;;;5071506;28;19917;-74
2022/08/11 09:02:02;;;;;;;;;;;26.80;99.30;;;;;;5070486;28;19967;-75
2022/08/11 09:04:28;;;;;;;;;;;26.70;98.20;;;;;;5070696;28;19913;-75
2022/08/11 09:07:06;;;;;;;;;;;26.60;98.00;;;;;;5071482;28;19919;-76
2022/08/11 09:09:32;;;;;;;;;;;26.60;97.70;;;;;;5067652;28;19912;-75
2022/08/11 09:11:58;;;;;;;;;;;26.60;98.40;;;;;;5067793;28;20015;-75
2022/08/11 09:14:59;;;;;;;;;;;26.90;98.50;;;;;;5068614;28;20007;-75
2022/08/11 09:17:14;;;;;;;;;;;27.00;97.80;;;;;;5068100;28;19924;-75
2022/08/11 09:19:40;;;;;;;;;;;27.10;97.40;;;;;;5069772;28;19924;-75
2022/08/11 09:27:37;;;;;;;;;;;27.00;96.90;;;;;;5065208;28;20001;-72
2022/08/11 09:30:04;;;;;;;;;;;27.00;98.90;;;;;;5106217;28;19908;-75
2022/08/11 09:32:30;;;;;;;;;;;27.20;99.90;;;;;;5072437;28;19982;-75
2022/08/11 09:34:56;;;;;;;;;;;27.40;99.90;;;;;;5068094;28;19939;-76
2022/08/11 09:45:37;;;;;;;;;;;27.20;99.80;;;;;;5075161;28;20036;-76
2022/08/11 09:48:04;;;;;;;;;;;27.20;99.90;;;;;;5068842;28;19912;-76
2022/08/11 09:50:31;;;;;;;;;;;27.30;99.90;;;;;;5077223;28;19912;-73
2022/08/11 09:52:58;;;;;;;;;;;27.50;99.90;;;;;;5076044;28;19912;-75
2022/08/11 09:55:24;;;;;;;;;;;27.80;99.90;;;;;;5073390;28;19908;-76
2022/08/11 10:00:39;;;;;;;;;;;28.00;99.90;;;;;;5075284;28;19919;-76
2022/08/11 10:03:12;;;;;;;;;;;28.00;99.90;;;;;;5072261;28;20307;-76
2022/08/11 10:08:25;;;;;;;;;;;27.90;99.90;;;;;;5071772;28;20313;-75
2022/08/11 10:10:52;;;;;;;;;;;28.10;99.90;;;;;;5072670;28;19924;-76
2022/08/11 10:13:22;;;;;;;;;;;28.20;99.90;;;;;;5069862;28;19966;-75
2022/08/11 10:15:48;;;;;;;;;;;28.40;99.90;;;;;;5067970;28;20260;-77
2022/08/11 10:21:01;;;;;;;;;;;28.70;99.30;;;;;;5073903;28;19947;-75
2022/08/11 10:28:58;;;;;;;;;;;28.80;98.70;;;;;;5075228;28;19970;-75
2022/08/11 10:34:14;;;;;;;;;;;29.00;99.30;;;;;;5067986;28;20013;-76
2022/08/11 10:36:52;;;;;;;;;;;29.00;95.60;;;;;;5074216;28;19958;-75
2022/08/11 10:39:19;;;;;;;;;;;29.20;98.70;;;;;;5075568;28;20208;-76
2022/08/11 10:44:36;;;;;;;;;;;29.40;94.20;;;;;;5076425;28;19961;-78
2022/08/11 10:51:11;;;;;;;;;;;29.00;98.50;;;;;;5074957;28;19923;-75
2022/08/11 11:00:47;;;;;;;;;;;29.60;94.00;;;;;;5079733;28;19919;-73
2022/08/11 11:03:13;;;;;;;;;;;29.50;93.30;;;;;;5084880;28;19912;-77
2022/08/11 11:05:39;;;;;;;;;;;29.50;92.40;;;;;;5072918;28;20265;-75
2022/08/11 11:10:57;;;;;;;;;;;29.30;91.60;;;;;;5073888;28;19920;-75
2022/08/11 11:18:53;;;;;;;;;;;29.60;94.30;;;;;;5066697;28;19924;-75
2022/08/11 11:21:19;;;;;;;;;;;29.70;95.70;;;;;;5069458;28;19920;-77
2022/08/11 11:23:47;;;;;;;;;;;29.80;95.60;;;;;;5093260;28;19912;-74
2022/08/11 11:26:39;;;;;;;;;;;29.80;95.10;;;;;;5074255;28;19970;-76
2022/08/11 11:29:24;;;;;;;;;;;29.80;95.20;;;;;;5057729;28;20216;-77
2022/08/11 11:31:49;;;;;;;;;;;29.70;95.00;;;;;;5075149;28;19919;-75
2022/08/11 11:34:33;;;;;;;;;;;29.90;95.80;;;;;;5074723;28;19912;-76
2022/08/11 11:36:59;;;;;;;;;;;30.10;93.30;;;;;;5061318;28;20250;-76
2022/08/11 11:39:27;;;;;;;;;;;30.10;93.90;;;;;;5065498;28;20258;-75
2022/08/11 11:41:55;;;;;;;;;;;30.00;94.30;;;;;;5073713;28;19999;-77
2022/08/11 11:44:21;;;;;;;;;;;30.10;95.00;;;;;;5069084;28;19916;-78
2022/08/11 11:46:48;;;;;;;;;;;30.10;90.80;;;;;;5106434;28;19912;-75
2022/08/11 11:49:15;;;;;;;;;;;30.00;90.80;;;;;;5062423;28;19973;-75
2022/08/11 11:51:42;;;;;;;;;;;30.20;91.10;;;;;;5073726;28;19939;-75
2022/08/11 11:54:09;;;;;;;;;;;30.20;90.40;;;;;;5072346;28;19913;-75
2022/08/11 11:56:36;;;;;;;;;;;30.60;89.40;;;;;;5070424;28;20045;-75
2022/08/11 12:01:46;;;;;;;;;;;30.80;93.10;;;;;;5074229;28;20029;-76
2022/08/11 12:04:12;;;;;;;;;;;30.60;92.90;;;;;;5061094;28;20051;-76
2022/08/11 12:06:38;;;;;;;;;;;30.60;92.90;;;;;;5064098;28;19932;-76
2022/08/11 12:09:04;;;;;;;;;;;30.30;95.00;;;;;;5064683;28;19912;-75
2022/08/11 12:14:19;;;;;;;;;;;30.40;94.60;;;;;;5066545;28;19927;-74
2022/08/11 12:16:45;;;;;;;;;;;30.30;94.30;;;;;;5105789;28;19988;-75
2022/08/11 12:19:15;;;;;;;;;;;30.20;94.40;;;;;;5062352;28;19923;-75
2022/08/11 12:27:19;;;;;;;;;;;30.30;93.00;;;;;;5063117;28;19962;-75
2022/08/11 12:29:46;;;;;;;;;;;30.30;93.10;;;;;;5059674;28;19912;-74
2022/08/11 12:32:12;;;;;;;;;;;30.30;92.30;;;;;;5060456;28;19912;-75
2022/08/11 12:34:37;;;;;;;;;;;30.50;92.90;;;;;;5070357;28;19973;-75
2022/08/11 12:37:05;;;;;;;;;;;30.50;92.30;;;;;;5067390;28;20030;-74
2022/08/11 12:53:22;;;;;;;;;;;30.10;92.50;;;;;;5066728;28;19965;-74
2022/08/11 12:58:33;;;;;;;;;;;29.80;92.50;;;;;;5070033;28;21596;-76
2022/08/11 13:06:27;;;;;;;;;;;29.90;91.40;;;;;;5064055;28;20016;-74
2022/08/11 13:08:56;;;;;;;;;;;29.90;91.90;;;;;;5064895;28;20342;-74
2022/08/11 13:14:07;;;;;;;;;;;29.80;93.10;;;;;;5072688;28;19958;-75
2022/08/11 13:17:20;;;;;;;;;;;29.80;93.40;;;;;;5077530;28;19924;-74
2022/08/11 13:19:22;;;;;;;;;;;29.80;93.90;;;;;;5076191;28;19913;-74
2022/08/11 13:21:48;;;;;;;;;;;29.90;93.10;;;;;;5109328;28;19993;-75
2022/08/11 13:24:14;;;;;;;;;;;29.80;93.60;;;;;;5065237;28;20012;-75
2022/08/11 13:26:41;;;;;;;;;;;29.80;94.10;;;;;;5076420;28;20375;-74
2022/08/11 13:29:07;;;;;;;;;;;29.80;92.30;;;;;;5073216;28;20215;-76
2022/08/11 13:31:33;;;;;;;;;;;29.90;92.70;;;;;;5075337;28;19912;-75
2022/08/11 13:33:59;;;;;;;;;;;29.90;94.90;;;;;;5077213;28;19920;-74
2022/08/11 13:36:27;;;;;;;;;;;29.90;92.40;;;;;;5075779;28;19916;-76
2022/08/11 13:38:54;;;;;;;;;;;29.80;91.50;;;;;;5075127;28;19928;-75
2022/08/11 13:41:38;;;;;;;;;;;29.80;92.40;;;;;;5108943;28;20318;-75
2022/08/11 13:44:05;;;;;;;;;;;29.70;94.00;;;;;;5076397;28;19959;-74
2022/08/11 13:46:31;;;;;;;;;;;29.70;92.80;;;;;;5072949;28;20291;-76
2022/08/11 13:48:57;;;;;;;;;;;29.70;92.40;;;;;;5075402;28;19955;-75
2022/08/11 13:51:35;;;;;;;;;;;29.60;92.10;;;;;;5074327;28;19913;-78
2022/08/11 13:54:03;;;;;;;;;;;29.50;91.90;;;;;;5075906;28;19948;-76
2022/08/11 13:56:29;;;;;;;;;;;29.30;93.40;;;;;;5076121;28;19920;-76
2022/08/11 13:58:55;;;;;;;;;;;29.40;93.10;;;;;;5074281;28;19912;-74
2022/08/11 14:01:23;;;;;;;;;;;29.40;92.10;;;;;;5075368;28;19928;-76
2022/08/11 14:03:49;;;;;;;;;;;29.30;92.60;;;;;;5076692;28;19912;-76
2022/08/11 14:06:16;;;;;;;;;;;29.30;93.80;;;;;;5077358;28;19920;-77
2022/08/11 14:08:42;;;;;;;;;;;29.30;92.40;;;;;;5074699;28;19912;-76
2022/08/11 14:13:52;;;;;;;;;;;29.30;91.50;;;;;;5067615;28;19935;-75
2022/08/11 14:16:19;;;;;;;;;;;29.30;91.20;;;;;;5092711;28;19924;-74
2022/08/11 14:18:46;;;;;;;;;;;29.30;90.50;;;;;;5076247;28;19966;-75
2022/08/11 14:23:58;;;;;;;;;;;29.30;92.90;;;;;;5077295;28;19919;-75
2022/08/11 14:26:27;;;;;;;;;;;29.30;93.00;;;;;;5063288;28;19909;-77
2022/08/11 14:28:56;;;;;;;;;;;29.20;92.10;;;;;;5074210;28;19920;-75
2022/08/11 14:31:24;;;;;;;;;;;29.20;91.30;;;;;;5072001;28;19986;-74
2022/08/11 14:33:51;;;;;;;;;;;29.10;91.00;;;;;;5063848;28;19921;-74
2022/08/11 14:36:17;;;;;;;;;;;29.20;92.30;;;;;;5075481;28;19908;-75
2022/08/11 14:38:43;;;;;;;;;;;29.30;91.90;;;;;;5074755;28;20353;-76
2022/08/11 14:49:25;;;;;;;;;;;29.20;92.40;;;;;;5075643;28;20000;-75
2022/08/11 14:51:53;;;;;;;;;;;29.20;92.30;;;;;;5076251;28;19923;-76
2022/08/11 14:57:06;;;;;;;;;;;29.30;91.20;;;;;;5076258;28;19922;-76
2022/08/11 14:59:32;;;;;;;;;;;29.20;91.00;;;;;;5075769;28;20254;-73
2022/08/11 15:04:44;;;;;;;;;;;29.10;91.60;;;;;;5075142;28;19920;-75
2022/08/11 15:07:09;;;;;;;;;;;29.00;92.10;;;;;;5071984;28;19913;-74
2022/08/11 15:09:35;;;;;;;;;;;29.10;91.60;;;;;;5072632;28;19916;-74
2022/08/11 15:12:16;;;;;;;;;;;28.90;91.90;;;;;;5076392;28;19919;-73
2022/08/11 15:17:32;;;;;;;;;;;29.00;91.30;;;;;;5075364;28;19927;-76
2022/08/11 15:25:33;;;;;;;;;;;29.00;91.20;;;;;;5057777;28;20310;-76
2022/08/11 15:39:08;;;;;;;;;;;28.80;91.60;;;;;;5070417;28;19927;-73
2022/08/11 15:47:16;;;;;;;;;;;28.70;91.40;;;;;;5070034;28;20306;-78
2022/08/11 15:49:43;;;;;;;;;;;28.70;91.90;;;;;;5072405;28;19926;-75
2022/08/11 15:52:12;;;;;;;;;;;28.70;92.10;;;;;;5069638;28;19920;-76
2022/08/11 15:54:40;;;;;;;;;;;28.60;92.10;;;;;;5072707;28;19920;-77
2022/08/11 15:57:06;;;;;;;;;;;28.60;92.60;;;;;;5069434;28;19917;-74
2022/08/11 16:05:07;;;;;;;;;;;28.60;92.50;;;;;;5069565;28;20318;-75
2022/08/11 16:07:34;;;;;;;;;;;28.50;92.40;;;;;;5100709;28;20304;-76
2022/08/11 16:10:06;;;;;;;;;;;28.50;92.90;;;;;;5071585;28;19913;-74
2022/08/11 16:12:34;;;;;;;;;;;28.50;92.70;;;;;;5071225;28;19931;-74
2022/08/11 16:17:53;;;;;;;;;;;28.40;93.00;;;;;;5070394;28;20681;-75
2022/08/11 16:20:20;;;;;;;;;;;28.40;93.50;;;;;;5073162;28;20007;-75
2022/08/11 16:22:49;;;;;;;;;;;28.40;93.50;;;;;;5071040;28;20456;-73
2022/08/11 16:25:17;;;;;;;;;;;28.40;94.70;;;;;;5068724;28;19981;-78
2022/08/11 16:27:45;;;;;;;;;;;28.30;94.20;;;;;;5069615;28;19913;-75
2022/08/11 16:30:13;;;;;;;;;;;28.40;94.20;;;;;;5068879;28;19920;-75
2022/08/11 16:32:40;;;;;;;;;;;28.40;94.90;;;;;;5072323;28;20278;-78
2022/08/11 16:40:42;;;;;;;;;;;28.30;94.10;;;;;;5069679;28;19935;-77
2022/08/11 16:48:41;;;;;;;;;;;28.20;94.10;;;;;;5069467;28;19978;-75
2022/08/11 16:51:09;;;;;;;;;;;28.10;94.20;;;;;;5065314;28;19956;-79
2022/08/11 16:53:37;;;;;;;;;;;28.10;94.20;;;;;;5064908;28;19923;-77
2022/08/11 16:56:03;;;;;;;;;;;28.10;94.30;;;;;;5068424;28;19921;-75
2022/08/11 17:01:14;;;;;;;;;;;28.20;93.80;;;;;;5069900;28;20014;-76
2022/08/11 17:14:49;;;;;;;;;;;28.00;95.00;;;;;;5071381;28;19947;-76
2022/08/11 17:17:19;;;;;;;;;;;27.90;95.10;;;;;;5070967;28;19927;-76
2022/08/11 17:19:49;;;;;;;;;;;27.90;95.90;;;;;;5068290;28;20223;-76
2022/08/11 17:25:00;;;;;;;;;;;27.70;96.00;;;;;;5070746;28;19977;-74
2022/08/11 17:27:26;;;;;;;;;;;27.50;96.60;;;;;;5072478;28;19916;-77
2022/08/11 17:29:53;;;;;;;;;;;27.40;97.00;;;;;;5071152;28;19916;-77
2022/08/11 17:37:57;;;;;;;;;;;27.30;97.90;;;;;;5069474;28;19919;-73
2022/08/11 17:40:24;;;;;;;;;;;27.20;97.80;;;;;;5069768;28;19917;-74
2022/08/11 17:48:26;;;;;;;;;;;27.10;99.00;;;;;;5071438;28;19957;-74
2022/08/11 17:50:54;;;;;;;;;;;27.10;99.20;;;;;;5071058;28;19941;-76
2022/08/11 17:59:50;;;;;;;;;;;27.00;99.00;;;;;;5071724;28;19923;-77
2022/08/11 18:01:45;;;;;;;;;;;26.90;99.50;;;;;;5074226;28;19928;-77
2022/08/11 18:04:12;;;;;;;;;;;26.90;99.20;;;;;;5073577;28;19920;-76
2022/08/11 18:06:39;;;;;;;;;;;26.80;98.90;;;;;;5071875;28;19926;-77
